createdAt,value
2023-03-05T00:00:33.180Z,5.40
2023-03-05T00:03:01.439Z,5.70
2023-03-05T00:05:29.710Z,5.50
2023-03-05T00:07:58.469Z,5.30
2023-03-05T00:10:27.862Z,5.80
2023-03-05T00:12:57.038Z,6.10
2023-03-05T00:15:25.345Z,5.60
2023-03-05T00:17:56.870Z,5.80
2023-03-05T00:20:25.008Z,6.30
2023-03-05T00:22:53.129Z,6.50
2023-03-05T00:25:21.171Z,6.70
2023-03-05T00:27:49.388Z,5.90
2023-03-05T00:30:22.383Z,6.50
2023-03-05T00:32:50.612Z,7.10
2023-03-05T00:35:18.822Z,7.50
2023-03-05T00:37:47.976Z,7.40
2023-03-05T00:40:16.288Z,7.80
2023-03-05T00:42:44.456Z,8.60
2023-03-05T00:45:12.605Z,8.30
2023-03-05T00:47:40.760Z,7.50
2023-03-05T00:50:09.869Z,8.20
2023-03-05T00:52:39.199Z,8.10
2023-03-05T00:55:08.087Z,9.10
2023-03-05T00:57:37.230Z,7.30
2023-03-05T01:00:05.948Z,7.40
2023-03-05T01:02:34.899Z,8.20
2023-03-05T01:05:03.593Z,7.50
2023-03-05T01:07:33.562Z,8.00
2023-03-05T01:10:03.113Z,6.90
2023-03-05T01:12:33.655Z,6.40
2023-03-05T01:15:02.860Z,6.00
2023-03-05T01:17:32.001Z,6.60
2023-03-05T01:20:00.191Z,5.90
2023-03-05T01:22:30.200Z,5.00
2023-03-05T01:25:01.544Z,5.40
2023-03-05T01:27:30.048Z,5.10
2023-03-05T01:29:58.244Z,4.50
2023-03-05T01:32:27.398Z,4.00
2023-03-05T01:34:55.577Z,3.70
2023-03-05T01:37:23.869Z,3.00
2023-03-05T01:39:52.132Z,2.70
2023-03-05T01:42:21.268Z,2.80
2023-03-05T01:45:12.799Z,2.80
2023-03-05T01:47:40.903Z,2.40
2023-03-05T01:50:11.821Z,2.50
2023-03-05T01:52:41.495Z,2.40
2023-03-05T01:55:13.877Z,2.30
2023-03-05T01:58:05.714Z,1.90
2023-03-05T02:00:37.785Z,2.10
2023-03-05T02:03:07.955Z,2.00
2023-03-05T02:05:38.224Z,1.90
2023-03-05T02:08:09.062Z,1.40
2023-03-05T02:10:48.253Z,1.60
2023-03-05T02:13:22.865Z,1.60
2023-03-05T02:15:51.472Z,1.50
2023-03-05T02:18:22.645Z,1.50
2023-03-05T02:20:56.428Z,1.20
2023-03-05T02:23:26.795Z,1.20
2023-03-05T02:25:55.857Z,1.30
2023-03-05T02:28:37.668Z,1.60
2023-03-05T02:31:19.341Z,1.70
2023-03-05T02:33:47.773Z,1.50
2023-03-05T02:36:16.887Z,1.90
2023-03-05T02:38:45.482Z,1.70
2023-03-05T02:41:13.957Z,1.70
2023-03-05T02:43:42.545Z,2.80
2023-03-05T02:46:14.947Z,1.40
2023-03-05T02:48:43.581Z,1.50
2023-03-05T02:51:13.676Z,1.20
2023-03-05T02:53:44.669Z,1.70
2023-03-05T02:56:13.134Z,1.30
2023-03-05T02:58:43.583Z,1.30
2023-03-05T03:01:12.252Z,1.40
2023-03-05T03:03:41.153Z,1.60
2023-03-05T03:06:11.155Z,1.60
2023-03-05T03:08:39.675Z,1.50
2023-03-05T03:11:10.145Z,1.70
2023-03-05T03:13:40.158Z,1.50
2023-03-05T03:16:10.182Z,1.50
2023-03-05T03:18:38.590Z,2.00
2023-03-05T03:21:17.038Z,1.50
2023-03-05T03:23:45.298Z,2.00
2023-03-05T03:26:13.471Z,1.70
2023-03-05T03:28:42.536Z,2.20
2023-03-05T03:31:10.850Z,1.40
2023-03-05T03:33:38.951Z,1.30
2023-03-05T03:36:08.075Z,1.80
2023-03-05T03:38:36.416Z,1.90
2023-03-05T03:41:08.169Z,2.00
2023-03-05T03:43:37.151Z,1.60
2023-03-05T03:52:23.751Z,2.40
2023-03-05T03:54:55.871Z,1.40
2023-03-05T03:57:24.811Z,1.50
2023-03-05T03:59:52.910Z,1.80
2023-03-05T04:02:21.082Z,1.40
2023-03-05T04:04:51.654Z,1.20
2023-03-05T04:07:19.946Z,1.70
2023-03-05T04:09:48.614Z,1.90
2023-03-05T04:12:18.460Z,1.10
2023-03-05T04:14:47.603Z,1.20
2023-03-05T04:17:17.616Z,1.50
2023-03-05T04:19:45.774Z,1.40
2023-03-05T04:22:15.540Z,1.20
2023-03-05T04:24:44.211Z,3.00
2023-03-05T04:27:12.687Z,1.70
2023-03-05T04:29:41.069Z,1.00
2023-03-05T04:34:06.962Z,0.80
2023-03-05T04:36:35.756Z,1.10
2023-03-05T04:39:05.106Z,1.10
2023-03-05T04:41:34.161Z,1.60
2023-03-05T04:44:05.825Z,1.40
2023-03-05T04:46:34.592Z,1.40
2023-03-05T04:49:03.348Z,1.50
2023-03-05T04:51:31.881Z,1.70
2023-03-05T04:54:04.817Z,1.60
2023-03-05T04:56:34.114Z,3.20
2023-03-05T04:59:02.918Z,2.10
2023-03-05T05:01:31.113Z,1.90
2023-03-05T05:04:00.379Z,2.10
2023-03-05T05:06:28.563Z,2.10
2023-03-05T05:08:56.873Z,2.00
2023-03-05T05:11:25.083Z,1.60
2023-03-05T05:13:53.961Z,1.70
2023-03-05T05:16:22.237Z,2.80
2023-03-05T05:18:50.464Z,1.80
2023-03-05T05:21:20.545Z,1.10
2023-03-05T05:23:48.733Z,1.20
2023-03-05T05:26:17.508Z,1.30
2023-03-05T05:28:45.802Z,1.60
2023-03-05T05:31:15.600Z,1.60
2023-03-05T05:33:43.789Z,2.30
2023-03-05T05:36:14.592Z,1.70
2023-03-05T05:38:42.634Z,1.10
2023-03-05T05:41:12.784Z,1.50
2023-03-05T05:43:41.026Z,1.30
2023-03-05T05:46:12.704Z,1.80
2023-03-05T05:48:41.336Z,1.20
2023-03-05T05:51:15.544Z,1.50
2023-03-05T05:53:44.357Z,1.30
2023-03-05T05:56:14.752Z,1.30
2023-03-05T05:58:51.664Z,1.60
2023-03-05T06:01:30.175Z,1.80
2023-03-05T06:03:58.770Z,1.20
2023-03-05T06:06:28.066Z,1.40
2023-03-05T06:08:56.572Z,1.20
2023-03-05T06:11:24.721Z,1.40
2023-03-05T06:13:53.147Z,1.50
2023-03-05T06:16:24.003Z,1.60
2023-03-05T06:18:52.569Z,1.30
2023-03-05T06:21:21.147Z,1.80
2023-03-05T06:23:49.593Z,1.80
2023-03-05T06:26:19.719Z,1.70
2023-03-05T06:28:48.116Z,1.60
2023-03-05T06:31:25.868Z,1.90
2023-03-05T06:33:55.767Z,1.80
2023-03-05T06:36:24.654Z,2.40
2023-03-05T06:38:53.381Z,1.90
2023-03-05T06:41:23.552Z,2.40
2023-03-05T06:43:52.038Z,2.20
2023-03-05T06:46:22.453Z,1.90
2023-03-05T06:48:57.300Z,1.30
2023-03-05T06:51:30.981Z,1.80
2023-03-05T06:54:07.344Z,1.40
2023-03-05T06:56:41.513Z,1.50
2023-03-05T07:01:40.018Z,1.10
2023-03-05T07:04:08.381Z,2.10
2023-03-05T07:06:38.450Z,1.70
2023-03-05T07:09:07.139Z,1.30
2023-03-05T07:11:35.778Z,1.30
2023-03-05T07:14:04.643Z,1.40
2023-03-05T07:16:34.208Z,1.10
2023-03-05T07:19:04.189Z,1.40
2023-03-05T07:21:33.495Z,1.10
2023-03-05T07:24:04.285Z,1.50
2023-03-05T07:26:33.706Z,1.40
2023-03-05T07:29:03.714Z,1.90
2023-03-05T07:31:32.928Z,1.50
2023-03-05T07:34:02.301Z,1.40
2023-03-05T07:36:35.169Z,1.40
2023-03-05T07:39:05.092Z,1.70
2023-03-05T07:41:33.332Z,1.40
2023-03-05T07:44:01.532Z,1.10
2023-03-05T07:46:32.164Z,1.10
2023-03-05T07:49:00.806Z,1.10
2023-03-05T07:51:29.431Z,1.60
2023-03-05T07:53:58.671Z,1.60
2023-03-05T07:56:26.851Z,1.50
2023-03-05T07:58:55.827Z,2.60
2023-03-05T08:01:24.131Z,1.60
2023-03-05T08:03:52.280Z,2.20
2023-03-05T08:06:20.382Z,1.80
2023-03-05T08:08:48.580Z,2.10
2023-03-05T08:11:17.417Z,1.90
2023-03-05T08:13:46.822Z,2.30
2023-03-05T08:16:19.159Z,1.90
2023-03-05T08:18:55.322Z,2.00
2023-03-05T08:21:30.369Z,2.00
2023-03-05T08:23:59.670Z,1.60
2023-03-05T08:26:28.698Z,2.10
2023-03-05T08:28:57.048Z,2.40
2023-03-05T08:31:30.594Z,1.70
2023-03-05T08:34:00.039Z,2.00
2023-03-05T08:36:28.679Z,2.10
2023-03-05T08:38:57.139Z,2.50
2023-03-05T08:41:25.387Z,2.30
2023-03-05T08:43:54.490Z,2.10
2023-03-05T08:46:24.100Z,2.70
2023-03-05T08:48:57.775Z,2.70
2023-03-05T08:51:27.186Z,2.10
2023-03-05T08:53:58.832Z,2.10
2023-03-05T08:56:28.608Z,2.30
2023-03-05T08:58:59.652Z,2.50
2023-03-05T09:01:28.078Z,2.50
2023-03-05T09:03:56.662Z,2.50
2023-03-05T09:06:25.473Z,2.80
2023-03-05T09:08:54.130Z,2.40
2023-03-05T09:11:22.709Z,2.70
2023-03-05T09:13:50.862Z,2.80
2023-03-05T09:16:21.261Z,3.30
2023-03-05T09:18:49.596Z,4.20
2023-03-05T09:21:20.441Z,4.10
2023-03-05T09:23:59.611Z,4.80
2023-03-05T09:26:37.680Z,6.40
2023-03-05T09:29:07.685Z,3.00
2023-03-05T09:31:37.363Z,3.60
2023-03-05T09:34:06.094Z,3.50
2023-03-05T09:36:35.941Z,4.00
2023-03-05T09:39:04.804Z,3.30
2023-03-05T09:41:55.020Z,3.90
2023-03-05T09:44:39.239Z,3.40
2023-03-05T09:50:09.763Z,2.70
2023-03-05T09:52:53.113Z,3.20
2023-03-05T09:55:27.388Z,3.00
2023-03-05T09:57:57.807Z,2.70
2023-03-05T10:00:45.404Z,3.80
2023-03-05T10:03:17.909Z,2.50
2023-03-05T10:05:51.316Z,2.60
2023-03-05T10:08:22.497Z,2.80
2023-03-05T10:10:53.277Z,3.20
2023-03-05T10:13:32.209Z,4.30
2023-03-05T10:16:20.814Z,3.80
2023-03-05T10:18:58.261Z,3.40
2023-03-05T10:21:50.977Z,3.20
2023-03-05T10:24:25.941Z,3.50
2023-03-05T10:27:08.790Z,3.60
2023-03-05T10:30:25.817Z,3.70
2023-03-05T10:33:01.719Z,3.10
2023-03-05T10:35:45.097Z,3.80
2023-03-05T10:38:49.322Z,4.00
2023-03-05T10:44:06.517Z,3.40
2023-03-05T10:46:36.351Z,3.60
2023-03-05T10:49:13.984Z,3.70
2023-03-05T10:52:09.012Z,4.30
2023-03-05T10:54:41.934Z,3.80
2023-03-05T10:57:25.504Z,3.70
2023-03-05T11:00:18.634Z,3.60
2023-03-05T11:03:13.795Z,4.40
2023-03-05T11:06:00.284Z,3.80
2023-03-05T11:08:29.766Z,4.50
2023-03-05T11:11:10.264Z,4.40
2023-03-05T11:13:52.631Z,4.30
2023-03-05T11:16:26.970Z,5.20
2023-03-05T11:19:20.246Z,4.60
2023-03-05T11:22:13.490Z,4.00
2023-03-05T11:27:34.583Z,4.20
2023-03-05T11:30:40.585Z,4.40
2023-03-05T11:33:19.448Z,4.30
2023-03-05T11:35:48.504Z,3.70
2023-03-05T11:38:27.493Z,3.50
2023-03-05T11:40:57.148Z,4.10
2023-03-05T11:43:28.077Z,4.10
2023-03-05T11:46:02.934Z,3.90
2023-03-05T11:48:54.501Z,3.40
2023-03-05T11:51:34.942Z,3.40
2023-03-05T11:54:07.566Z,3.60
2023-03-05T11:59:05.906Z,4.30
2023-03-05T12:01:36.300Z,5.00
2023-03-05T12:04:08.925Z,4.40
2023-03-05T12:06:49.013Z,4.10
2023-03-05T12:09:28.777Z,4.20
2023-03-05T12:12:01.827Z,4.00
2023-03-05T12:14:56.618Z,3.50
2023-03-05T12:17:31.746Z,3.60
2023-03-05T12:20:09.700Z,3.30
2023-03-05T12:22:40.969Z,4.20
2023-03-05T12:25:34.770Z,6.00
2023-03-05T12:28:04.601Z,3.30
2023-03-05T12:30:45.970Z,3.10
2023-03-05T12:33:41.382Z,2.80
2023-03-05T12:36:20.198Z,2.70
2023-03-05T12:38:57.452Z,2.90
2023-03-05T12:41:33.035Z,2.70
2023-03-05T12:44:07.551Z,2.60
2023-03-05T12:46:42.180Z,4.10
2023-03-05T12:49:28.508Z,2.90
2023-03-05T12:51:57.374Z,2.50
2023-03-05T12:54:39.961Z,2.70
2023-03-05T12:57:26.540Z,2.90
2023-03-05T13:00:05.402Z,2.60
2023-03-05T13:02:40.185Z,2.90
2023-03-05T13:05:20.848Z,3.50
2023-03-05T13:07:50.494Z,2.80
2023-03-05T13:10:28.003Z,3.00
2023-03-05T13:12:58.981Z,3.30
2023-03-05T13:15:27.412Z,3.00
2023-03-05T13:18:03.634Z,2.40
2023-03-05T13:20:37.793Z,2.70
2023-03-05T13:23:25.425Z,2.90
2023-03-05T13:26:00.911Z,2.20
2023-03-05T13:28:30.339Z,2.40
2023-03-05T13:31:03.402Z,2.40
2023-03-05T13:33:37.133Z,2.80
2023-03-05T13:36:05.781Z,2.60
2023-03-05T13:38:39.597Z,2.30
2023-03-05T13:41:28.270Z,2.70
2023-03-05T13:43:59.888Z,2.20
2023-03-05T13:46:30.910Z,2.10
2023-03-05T13:49:18.063Z,2.70
2023-03-05T13:51:49.123Z,2.50
2023-03-05T13:54:17.798Z,2.20
2023-03-05T13:56:58.986Z,2.90
2023-03-05T13:59:39.164Z,2.20
2023-03-05T14:02:18.145Z,2.40
2023-03-05T14:04:46.547Z,2.30
2023-03-05T14:07:20.981Z,2.40
2023-03-05T14:09:50.018Z,2.60
2023-03-05T14:12:27.192Z,2.40
2023-03-05T14:15:25.825Z,2.70
2023-03-05T14:18:27.125Z,2.50
2023-03-05T14:21:09.486Z,3.80
2023-03-05T14:24:11.340Z,3.30
2023-03-05T14:26:48.799Z,2.60
2023-03-05T14:29:17.908Z,2.60
2023-03-05T14:31:56.837Z,2.70
2023-03-05T14:34:27.768Z,2.70
2023-03-05T14:36:59.021Z,2.80
2023-03-05T14:39:31.969Z,2.60
2023-03-05T14:42:24.063Z,3.10
2023-03-05T14:44:57.054Z,3.10
2023-03-05T14:47:32.677Z,2.70
2023-03-05T14:50:03.467Z,2.70
2023-03-05T14:52:32.024Z,2.90
2023-03-05T14:55:04.497Z,2.70
2023-03-05T14:57:35.786Z,2.30
2023-03-05T15:00:05.666Z,2.80
2023-03-05T15:02:34.119Z,2.90
2023-03-05T15:05:05.029Z,3.70
2023-03-05T15:07:33.173Z,4.90
2023-03-05T15:10:07.779Z,6.10
2023-03-05T15:12:36.962Z,5.30
2023-03-05T15:15:06.721Z,4.60
2023-03-05T15:17:44.387Z,4.80
2023-03-05T15:20:22.976Z,4.70
2023-03-05T15:22:51.210Z,5.70
2023-03-05T15:25:22.430Z,4.50
2023-03-05T15:27:53.878Z,4.80
2023-03-05T15:30:35.477Z,3.80
2023-03-05T15:33:05.890Z,4.70
2023-03-05T15:35:34.285Z,3.70
2023-03-05T15:38:03.758Z,4.90
2023-03-05T15:40:32.340Z,3.70
2023-03-05T15:43:04.821Z,3.80
2023-03-05T15:45:33.992Z,4.40
2023-03-05T15:48:03.271Z,4.50
2023-03-05T15:50:32.114Z,4.80
2023-03-05T15:53:00.346Z,6.00
2023-03-05T15:55:29.024Z,6.10
2023-03-05T15:57:57.845Z,6.50
2023-03-05T16:00:28.373Z,6.60
2023-03-05T16:02:57.145Z,6.50
2023-03-05T16:05:25.226Z,7.50
2023-03-05T16:07:53.511Z,7.00
2023-03-05T16:10:24.199Z,7.60
2023-03-05T16:12:55.392Z,7.40
2023-03-05T16:15:24.574Z,7.70
2023-03-05T16:17:55.313Z,8.20
2023-03-05T16:20:23.989Z,8.30
2023-03-05T16:22:54.597Z,9.90
2023-03-05T16:25:26.949Z,9.10
2023-03-05T16:27:55.418Z,8.90
2023-03-05T16:30:24.375Z,8.70
2023-03-05T16:32:56.746Z,8.70
2023-03-05T16:35:25.730Z,7.20
2023-03-05T16:37:54.019Z,9.20
2023-03-05T16:40:22.428Z,11.10
2023-03-05T16:42:50.915Z,9.30
2023-03-05T16:45:20.197Z,8.10
2023-03-05T16:47:48.801Z,7.80
2023-03-05T16:51:55.814Z,8.30
2023-03-05T16:54:25.464Z,8.20
2023-03-05T16:56:53.829Z,6.90
2023-03-05T16:59:22.527Z,7.80
2023-03-05T17:01:50.934Z,8.30
2023-03-05T17:04:19.345Z,7.90
2023-03-05T17:06:49.351Z,8.10
2023-03-05T17:09:23.742Z,8.80
2023-03-05T17:11:53.059Z,9.80
2023-03-05T17:14:22.542Z,8.90
2023-03-05T17:16:50.808Z,9.70
2023-03-05T17:19:31.959Z,9.40
2023-03-05T17:22:00.754Z,9.50
2023-03-05T17:24:34.052Z,9.50
2023-03-05T17:27:02.206Z,9.40
2023-03-05T17:29:30.852Z,9.00
2023-03-05T17:32:01.211Z,8.70
2023-03-05T17:34:36.293Z,8.50
2023-03-05T17:37:05.265Z,9.70
2023-03-05T17:45:48.512Z,9.30
2023-03-05T17:48:22.498Z,8.60
2023-03-05T17:50:54.089Z,8.60
2023-03-05T17:53:29.240Z,9.20
2023-03-05T17:56:02.352Z,9.20
2023-03-05T17:58:33.312Z,8.50
2023-03-05T18:01:01.832Z,9.30
2023-03-05T18:03:32.681Z,11.90
2023-03-05T18:06:01.135Z,12.60
2023-03-05T18:08:40.696Z,16.20
2023-03-05T18:11:12.625Z,13.80
2023-03-05T18:13:43.621Z,12.00
2023-03-05T18:16:17.082Z,20.50
2023-03-05T18:18:48.410Z,14.80
2023-03-05T18:21:23.471Z,22.10
2023-03-05T18:23:52.142Z,24.20
2023-03-05T18:26:24.704Z,25.10
2023-03-05T18:28:53.650Z,24.40
2023-03-05T18:31:24.640Z,23.40
2023-03-05T18:34:00.440Z,23.10
2023-03-05T18:36:33.583Z,16.40
2023-03-05T18:39:04.533Z,16.10
2023-03-05T18:41:37.412Z,16.60
2023-03-05T18:44:08.484Z,16.00
2023-03-05T18:46:38.808Z,15.70
2023-03-05T18:49:12.033Z,14.10
2023-03-05T18:51:48.935Z,12.30
2023-03-05T18:54:17.771Z,12.90
2023-03-05T18:56:50.425Z,12.70
2023-03-05T18:59:19.036Z,13.70
2023-03-05T19:01:54.034Z,14.10
2023-03-05T19:04:22.652Z,13.60
2023-03-05T19:06:51.428Z,14.30
2023-03-05T19:09:59.525Z,14.20
2023-03-05T19:12:32.920Z,12.90
2023-03-05T19:15:10.374Z,12.40
2023-03-05T19:17:42.996Z,12.60
2023-03-05T19:20:16.239Z,10.20
2023-03-05T19:22:47.165Z,9.90
2023-03-05T19:25:17.648Z,11.60
2023-03-05T19:34:05.612Z,11.20
2023-03-05T19:36:39.637Z,10.60
2023-03-05T19:39:09.042Z,9.40
2023-03-05T19:41:42.788Z,10.00
2023-03-05T19:44:12.176Z,10.40
2023-03-05T19:46:42.076Z,11.70
2023-03-05T19:49:10.498Z,12.60
2023-03-05T19:51:40.474Z,13.60
2023-03-05T19:54:10.288Z,12.30
2023-03-05T19:56:39.281Z,12.20
2023-03-05T19:59:07.741Z,9.40
2023-03-05T20:01:36.139Z,8.20
2023-03-05T20:04:05.279Z,9.90
2023-03-05T20:06:33.973Z,11.30
2023-03-05T20:09:02.833Z,11.70
2023-03-05T20:11:31.613Z,11.10
2023-03-05T20:13:59.974Z,11.90
2023-03-05T20:16:35.411Z,11.80
2023-03-05T20:19:06.231Z,12.30
2023-03-05T20:21:41.607Z,12.30
2023-03-05T20:24:15.671Z,11.70
2023-03-05T20:26:45.446Z,13.40
2023-03-05T20:29:17.364Z,12.20
2023-03-05T20:31:46.834Z,12.30
2023-03-05T20:34:16.980Z,11.90
2023-03-05T20:36:47.431Z,12.00
2023-03-05T20:39:16.341Z,12.40
2023-03-05T20:41:47.211Z,11.60
2023-03-05T20:52:55.409Z,12.50
2023-03-05T20:55:28.578Z,15.00
2023-03-05T20:58:02.291Z,19.00
2023-03-05T21:00:31.258Z,17.00
2023-03-05T21:03:01.668Z,17.80
2023-03-05T21:05:37.935Z,17.90
2023-03-05T21:15:43.820Z,19.50
2023-03-05T21:18:12.719Z,15.70
2023-03-05T21:20:45.233Z,10.60
2023-03-05T21:23:14.114Z,7.60
2023-03-05T21:25:43.683Z,7.20
2023-03-05T21:28:16.750Z,7.10
2023-03-05T21:30:55.001Z,5.70
2023-03-05T21:33:33.934Z,5.40
2023-03-05T21:36:03.966Z,5.80
2023-03-05T21:38:34.213Z,4.80
2023-03-05T21:41:05.814Z,4.40
2023-03-05T21:43:37.904Z,3.40
2023-03-05T21:46:11.181Z,3.50
2023-03-05T21:48:42.772Z,3.30
2023-03-05T21:51:52.056Z,3.50
2023-03-05T21:54:31.353Z,3.50
2023-03-05T21:56:59.840Z,2.80
2023-03-05T21:59:28.230Z,3.40
2023-03-05T22:01:56.516Z,4.20
2023-03-05T22:04:25.068Z,3.40
2023-03-05T22:06:54.281Z,4.30
2023-03-05T22:09:22.742Z,3.40
2023-03-05T22:11:51.620Z,3.10
2023-03-05T22:14:19.958Z,3.60
2023-03-05T22:16:53.270Z,3.50
2023-03-05T22:19:21.779Z,3.10
2023-03-05T22:21:49.945Z,3.10
2023-03-05T22:24:18.192Z,3.30
2023-03-05T22:26:46.502Z,3.00
2023-03-05T22:29:16.958Z,2.80
2023-03-05T22:31:45.244Z,2.30
2023-03-05T22:34:13.264Z,2.30
2023-03-05T22:36:42.226Z,2.50
2023-03-05T22:39:10.376Z,2.40
2023-03-05T22:41:41.074Z,2.70
2023-03-05T22:44:09.337Z,2.40
2023-03-05T22:46:44.694Z,2.40
2023-03-05T22:49:18.692Z,3.00
2023-03-05T22:51:47.071Z,2.20
2023-03-05T22:54:15.458Z,2.70
2023-03-05T22:56:43.856Z,1.90
2023-03-05T22:59:12.723Z,2.50
2023-03-05T23:01:42.168Z,2.10
2023-03-05T23:04:49.322Z,2.30
2023-03-05T23:07:20.756Z,2.20
2023-03-05T23:09:56.269Z,2.00
2023-03-05T23:12:25.131Z,3.10
2023-03-05T23:14:53.755Z,3.50
2023-03-05T23:17:28.785Z,4.00
2023-03-05T23:19:57.202Z,4.30
2023-03-05T23:22:25.288Z,3.70
2023-03-05T23:24:55.508Z,3.20
2023-03-05T23:27:24.069Z,3.20
2023-03-05T23:30:20.095Z,2.80
2023-03-05T23:32:54.432Z,2.90
2023-03-05T23:35:36.873Z,3.50
2023-03-05T23:38:07.397Z,3.00
2023-03-05T23:40:37.434Z,2.80
2023-03-05T23:43:05.713Z,3.10
2023-03-05T23:45:43.895Z,6.30
2023-03-05T23:48:12.900Z,5.10
2023-03-05T23:50:44.529Z,5.70
2023-03-05T23:53:19.693Z,7.40
2023-03-05T23:55:48.293Z,9.00
2023-03-05T23:58:23.556Z,6.10
